sensor_id;sensor_type;location;lat;lon;timestamp;P1;durP1;ratioP1;P2;durP2;ratioP2
47129;SDS011;69689;48.122;11.542;2024-02-14T06:03:06;1.48;;;0.95;;
47129;SDS011;69689;48.122;11.542;2024-02-14T06:05:32;2.42;;;1.20;;
47129;SDS011;69689;48.122;11.542;2024-02-14T06:07:57;2.72;;;0.93;;
47129;SDS011;69689;48.122;11.542;2024-02-14T06:10:22;1.85;;;1.13;;
47129;SDS011;69689;48.122;11.542;2024-02-14T06:12:50;1.60;;;1.05;;
47129;SDS011;69689;48.122;11.542;2024-02-14T06:15:15;1.08;;;0.80;;
47129;SDS011;69689;48.122;11.542;2024-02-14T06:17:41;0.65;;;0.60;;
47129;SDS011;69689;48.122;11.542;2024-02-14T06:20:07;1.40;;;0.90;;
47129;SDS011;69689;48.122;11.542;2024-02-14T06:22:33;1.55;;;1.00;;
47129;SDS011;69689;48.122;11.542;2024-02-14T06:24:59;4.07;;;1.08;;
47129;SDS011;69689;48.122;11.542;2024-02-14T06:27:24;2.95;;;1.25;;
47129;SDS011;69689;48.122;11.542;2024-02-14T06:29:50;2.83;;;1.20;;
47129;SDS011;69689;48.122;11.542;2024-02-14T06:32:15;4.10;;;0.95;;
47129;SDS011;69689;48.122;11.542;2024-02-14T06:34:40;0.88;;;0.73;;
47129;SDS011;69689;48.122;11.542;2024-02-14T06:37:06;0.57;;;0.47;;
47129;SDS011;69689;48.122;11.542;2024-02-14T06:39:31;2.72;;;0.90;;
47129;SDS011;69689;48.122;11.542;2024-02-14T06:41:56;1.95;;;1.10;;
47129;SDS011;69689;48.122;11.542;2024-02-14T06:44:24;1.48;;;0.95;;
47129;SDS011;69689;48.122;11.542;2024-02-14T06:46:49;2.40;;;0.93;;
47129;SDS011;69689;48.122;11.542;2024-02-14T06:49:18;0.77;;;0.77;;
47129;SDS011;69689;48.122;11.542;2024-02-14T06:51:43;0.80;;;0.75;;
47129;SDS011;69689;48.122;11.542;2024-02-14T06:54:09;0.75;;;0.60;;
47129;SDS011;69689;48.122;11.542;2024-02-14T06:56:35;0.98;;;0.55;;
47129;SDS011;69689;48.122;11.542;2024-02-14T06:59:00;2.10;;;0.90;;
47129;SDS011;69689;48.122;11.542;2024-02-14T07:01:27;5.00;;;0.85;;
47129;SDS011;69689;48.122;11.542;2024-02-14T07:03:52;2.22;;;0.95;;
47129;SDS011;69689;48.122;11.542;2024-02-14T07:06:18;3.95;;;0.95;;
47129;SDS011;69689;48.122;11.542;2024-02-14T07:08:43;0.47;;;0.47;;
47129;SDS011;69689;48.122;11.542;2024-02-14T07:11:08;1.98;;;1.20;;
47129;SDS011;69689;48.122;11.542;2024-02-14T07:13:34;2.63;;;1.33;;
47129;SDS011;69689;48.122;11.542;2024-02-14T07:15:59;5.28;;;2.00;;
47129;SDS011;69689;48.122;11.542;2024-02-14T07:18:24;2.63;;;1.70;;
47129;SDS011;69689;48.122;11.542;2024-02-14T07:20:50;3.00;;;1.40;;
47129;SDS011;69689;48.122;11.542;2024-02-14T07:23:15;6.00;;;2.03;;
47129;SDS011;69689;48.122;11.542;2024-02-14T07:25:41;2.45;;;2.08;;
47129;SDS011;69689;48.122;11.542;2024-02-14T07:28:06;3.03;;;1.55;;
47129;SDS011;69689;48.122;11.542;2024-02-14T07:30:31;2.55;;;1.70;;
47129;SDS011;69689;48.122;11.542;2024-02-14T07:32:57;1.55;;;1.08;;
47129;SDS011;69689;48.122;11.542;2024-02-14T07:35:22;7.28;;;1.73;;
47129;SDS011;69689;48.122;11.542;2024-02-14T07:37:47;2.83;;;1.23;;
47129;SDS011;69689;48.122;11.542;2024-02-14T07:40:13;2.30;;;1.00;;
47129;SDS011;69689;48.122;11.542;2024-02-14T07:42:38;1.70;;;1.10;;
47129;SDS011;69689;48.122;11.542;2024-02-14T07:45:04;1.33;;;1.02;;
47129;SDS011;69689;48.122;11.542;2024-02-14T07:47:30;0.75;;;0.75;;
47129;SDS011;69689;48.122;11.542;2024-02-14T07:49:55;1.05;;;0.77;;
47129;SDS011;69689;48.122;11.542;2024-02-14T07:52:22;1.30;;;0.85;;
47129;SDS011;69689;48.122;11.542;2024-02-14T07:54:50;2.13;;;1.17;;
47129;SDS011;69689;48.122;11.542;2024-02-14T07:57:16;1.48;;;0.90;;
47129;SDS011;69689;48.122;11.542;2024-02-14T07:59:42;2.30;;;0.90;;
47129;SDS011;69689;48.122;11.542;2024-02-14T08:02:07;4.28;;;1.13;;
47129;SDS011;69689;48.122;11.542;2024-02-14T08:04:32;1.13;;;0.82;;
47129;SDS011;69689;48.122;11.542;2024-02-14T08:06:58;3.00;;;0.93;;
47129;SDS011;69689;48.122;11.542;2024-02-14T08:09:23;1.67;;;1.05;;
47129;SDS011;69689;48.122;11.542;2024-02-14T08:11:48;1.55;;;0.75;;
47129;SDS011;69689;48.122;11.542;2024-02-14T08:14:17;0.88;;;0.70;;
47129;SDS011;69689;48.122;11.542;2024-02-14T08:16:42;2.25;;;1.45;;
47129;SDS011;69689;48.122;11.542;2024-02-14T08:19:08;2.83;;;1.00;;
47129;SDS011;69689;48.122;11.542;2024-02-14T08:21:33;2.83;;;0.93;;
47129;SDS011;69689;48.122;11.542;2024-02-14T08:23:58;2.15;;;1.33;;
47129;SDS011;69689;48.122;11.542;2024-02-14T08:26:24;1.88;;;1.27;;
47129;SDS011;69689;48.122;11.542;2024-02-14T08:28:49;5.28;;;1.33;;
47129;SDS011;69689;48.122;11.542;2024-02-14T08:31:15;4.97;;;1.15;;
47129;SDS011;69689;48.122;11.542;2024-02-14T08:33:40;2.85;;;1.83;;
47129;SDS011;69689;48.122;11.542;2024-02-14T08:36:06;1.15;;;0.98;;
47129;SDS011;69689;48.122;11.542;2024-02-14T08:38:32;3.97;;;1.02;;
47129;SDS011;69689;48.122;11.542;2024-02-14T08:41:03;1.70;;;0.85;;
47129;SDS011;69689;48.122;11.542;2024-02-14T08:43:28;2.38;;;1.35;;
47129;SDS011;69689;48.122;11.542;2024-02-14T08:45:54;0.95;;;0.82;;
47129;SDS011;69689;48.122;11.542;2024-02-14T08:48:20;1.45;;;0.98;;
47129;SDS011;69689;48.122;11.542;2024-02-14T08:50:46;1.25;;;1.15;;
47129;SDS011;69689;48.122;11.542;2024-02-14T08:53:12;4.30;;;1.00;;
47129;SDS011;69689;48.122;11.542;2024-02-14T08:55:39;2.38;;;0.85;;
47129;SDS011;69689;48.122;11.542;2024-02-14T08:58:04;1.92;;;0.77;;
47129;SDS011;69689;48.122;11.542;2024-02-14T09:00:30;3.17;;;1.42;;
47129;SDS011;69689;48.122;11.542;2024-02-14T09:02:56;1.80;;;1.13;;
47129;SDS011;69689;48.122;11.542;2024-02-14T09:05:21;2.33;;;1.08;;
47129;SDS011;69689;48.122;11.542;2024-02-14T09:07:47;4.93;;;1.25;;
47129;SDS011;69689;48.122;11.542;2024-02-14T09:10:13;2.85;;;1.30;;
47129;SDS011;69689;48.122;11.542;2024-02-14T09:12:38;2.55;;;1.13;;
47129;SDS011;69689;48.122;11.542;2024-02-14T09:15:06;4.05;;;1.20;;
47129;SDS011;69689;48.122;11.542;2024-02-14T09:17:31;1.10;;;0.80;;
47129;SDS011;69689;48.122;11.542;2024-02-14T09:19:57;3.67;;;1.02;;
47129;SDS011;69689;48.122;11.542;2024-02-14T09:22:22;1.20;;;0.93;;
47129;SDS011;69689;48.122;11.542;2024-02-14T09:24:48;1.55;;;0.95;;
47129;SDS011;69689;48.122;11.542;2024-02-14T09:27:14;1.45;;;0.80;;
47129;SDS011;69689;48.122;11.542;2024-02-14T09:29:39;2.00;;;0.82;;
47129;SDS011;69689;48.122;11.542;2024-02-14T09:32:05;3.45;;;0.70;;
47129;SDS011;69689;48.122;11.542;2024-02-14T09:34:30;1.95;;;1.00;;
47129;SDS011;69689;48.122;11.542;2024-02-14T09:36:56;1.42;;;0.80;;
47129;SDS011;69689;48.122;11.542;2024-02-14T09:39:23;2.42;;;1.10;;
47129;SDS011;69689;48.122;11.542;2024-02-14T09:41:51;2.05;;;0.75;;
47129;SDS011;69689;48.122;11.542;2024-02-14T09:44:19;1.10;;;0.60;;
47129;SDS011;69689;48.122;11.542;2024-02-14T09:46:47;1.77;;;0.73;;
47129;SDS011;69689;48.122;11.542;2024-02-14T09:49:13;0.90;;;0.82;;
47129;SDS011;69689;48.122;11.542;2024-02-14T09:51:39;1.85;;;0.90;;
47129;SDS011;69689;48.122;11.542;2024-02-14T09:54:05;1.95;;;0.50;;
47129;SDS011;69689;48.122;11.542;2024-02-14T09:56:31;1.75;;;0.80;;
47129;SDS011;69689;48.122;11.542;2024-02-14T09:58:57;0.98;;;0.60;;
47129;SDS011;69689;48.122;11.542;2024-02-14T10:01:25;1.92;;;0.52;;
47129;SDS011;69689;48.122;11.542;2024-02-14T10:03:51;1.13;;;0.80;;
47129;SDS011;69689;48.122;11.542;2024-02-14T10:06:17;0.60;;;0.43;;
47129;SDS011;69689;48.122;11.542;2024-02-14T10:08:45;1.45;;;0.80;;
47129;SDS011;69689;48.122;11.542;2024-02-14T10:11:13;0.77;;;0.70;;
47129;SDS011;69689;48.122;11.542;2024-02-14T10:13:40;1.98;;;0.70;;
47129;SDS011;69689;48.122;11.542;2024-02-14T10:16:05;1.85;;;0.88;;
47129;SDS011;69689;48.122;11.542;2024-02-14T10:18:33;2.95;;;0.95;;
47129;SDS011;69689;48.122;11.542;2024-02-14T10:20:58;2.17;;;0.70;;
47129;SDS011;69689;48.122;11.542;2024-02-14T10:23:24;3.28;;;1.65;;
47129;SDS011;69689;48.122;11.542;2024-02-14T10:25:52;1.48;;;0.70;;
47129;SDS011;69689;48.122;11.542;2024-02-14T10:28:20;1.10;;;0.73;;
47129;SDS011;69689;48.122;11.542;2024-02-14T10:30:46;1.48;;;0.90;;
47129;SDS011;69689;48.122;11.542;2024-02-14T10:33:12;2.20;;;0.70;;
47129;SDS011;69689;48.122;11.542;2024-02-14T10:35:37;2.08;;;0.93;;
47129;SDS011;69689;48.122;11.542;2024-02-14T10:38:03;3.65;;;1.08;;
47129;SDS011;69689;48.122;11.542;2024-02-14T10:40:28;2.10;;;1.00;;
47129;SDS011;69689;48.122;11.542;2024-02-14T10:42:57;1.80;;;1.10;;
47129;SDS011;69689;48.122;11.542;2024-02-14T10:45:23;2.22;;;0.90;;
47129;SDS011;69689;48.122;11.542;2024-02-14T10:47:50;1.10;;;0.68;;
47129;SDS011;69689;48.122;11.542;2024-02-14T10:50:16;0.90;;;0.45;;
47129;SDS011;69689;48.122;11.542;2024-02-14T10:52:42;0.85;;;0.40;;
47129;SDS011;69689;48.122;11.542;2024-02-14T10:55:10;0.80;;;0.40;;
47129;SDS011;69689;48.122;11.542;2024-02-14T10:57:37;0.75;;;0.60;;
47129;SDS011;69689;48.122;11.542;2024-02-14T11:00:04;0.90;;;0.70;;
47129;SDS011;69689;48.122;11.542;2024-02-14T11:02:31;1.42;;;0.50;;
47129;SDS011;69689;48.122;11.542;2024-02-14T11:04:57;3.20;;;0.52;;
47129;SDS011;69689;48.122;11.542;2024-02-14T11:07:23;0.63;;;0.60;;
47129;SDS011;69689;48.122;11.542;2024-02-14T11:09:48;0.50;;;0.50;;
47129;SDS011;69689;48.122;11.542;2024-02-14T11:12:25;1.58;;;0.70;;
47129;SDS011;69689;48.122;11.542;2024-02-14T11:14:51;0.98;;;0.28;;
47129;SDS011;69689;48.122;11.542;2024-02-14T11:17:18;0.68;;;0.40;;
47129;SDS011;69689;48.122;11.542;2024-02-14T11:19:49;1.92;;;0.50;;
47129;SDS011;69689;48.122;11.542;2024-02-14T11:22:20;0.82;;;0.28;;
47129;SDS011;69689;48.122;11.542;2024-02-14T11:24:48;0.65;;;0.50;;
47129;SDS011;69689;48.122;11.542;2024-02-14T11:27:14;0.55;;;0.40;;
47129;SDS011;69689;48.122;11.542;2024-02-14T11:29:40;1.10;;;0.38;;
47129;SDS011;69689;48.122;11.542;2024-02-14T11:32:08;1.17;;;0.40;;
47129;SDS011;69689;48.122;11.542;2024-02-14T11:34:34;0.32;;;0.32;;
47129;SDS011;69689;48.122;11.542;2024-02-14T11:36:59;1.83;;;0.70;;
47129;SDS011;69689;48.122;11.542;2024-02-14T11:39:25;0.80;;;0.50;;
47129;SDS011;69689;48.122;11.542;2024-02-14T11:41:51;1.20;;;0.55;;
47129;SDS011;69689;48.122;11.542;2024-02-14T11:44:16;0.50;;;0.50;;
47129;SDS011;69689;48.122;11.542;2024-02-14T11:46:41;0.68;;;0.40;;
47129;SDS011;69689;48.122;11.542;2024-02-14T11:49:07;0.88;;;0.45;;
47129;SDS011;69689;48.122;11.542;2024-02-14T11:51:34;2.58;;;0.50;;
47129;SDS011;69689;48.122;11.542;2024-02-14T11:54:03;1.48;;;0.43;;
47129;SDS011;69689;48.122;11.542;2024-02-14T11:56:39;0.80;;;0.45;;
47129;SDS011;69689;48.122;11.542;2024-02-14T11:59:05;0.40;;;0.30;;
47129;SDS011;69689;48.122;11.542;2024-02-14T12:01:31;2.65;;;0.80;;
47129;SDS011;69689;48.122;11.542;2024-02-14T12:03:59;1.55;;;0.70;;
47129;SDS011;69689;48.122;11.542;2024-02-14T12:06:28;1.00;;;0.35;;
47129;SDS011;69689;48.122;11.542;2024-02-14T12:08:56;0.63;;;0.30;;
47129;SDS011;69689;48.122;11.542;2024-02-14T12:11:21;0.47;;;0.47;;
47129;SDS011;69689;48.122;11.542;2024-02-14T12:13:50;3.88;;;1.30;;
47129;SDS011;69689;48.122;11.542;2024-02-14T12:16:15;1.65;;;1.00;;
47129;SDS011;69689;48.122;11.542;2024-02-14T12:18:41;1.27;;;0.40;;
47129;SDS011;69689;48.122;11.542;2024-02-14T12:21:06;0.50;;;0.50;;
47129;SDS011;69689;48.122;11.542;2024-02-14T12:23:35;1.50;;;0.40;;
47129;SDS011;69689;48.122;11.542;2024-02-14T12:26:03;0.57;;;0.40;;
47129;SDS011;69689;48.122;11.542;2024-02-14T12:28:30;4.07;;;0.50;;
47129;SDS011;69689;48.122;11.542;2024-02-14T12:30:56;1.45;;;0.40;;
47129;SDS011;69689;48.122;11.542;2024-02-14T12:33:22;1.35;;;0.80;;
47129;SDS011;69689;48.122;11.542;2024-02-14T12:35:49;0.63;;;0.60;;
47129;SDS011;69689;48.122;11.542;2024-02-14T12:38:15;2.15;;;0.77;;
47129;SDS011;69689;48.122;11.542;2024-02-14T12:40:42;1.27;;;0.38;;
47129;SDS011;69689;48.122;11.542;2024-02-14T12:43:09;1.38;;;0.70;;
47129;SDS011;69689;48.122;11.542;2024-02-14T12:45:35;2.13;;;1.35;;
47129;SDS011;69689;48.122;11.542;2024-02-14T12:48:01;2.78;;;0.57;;
47129;SDS011;69689;48.122;11.542;2024-02-14T12:50:26;0.98;;;0.47;;
47129;SDS011;69689;48.122;11.542;2024-02-14T12:52:52;3.30;;;0.50;;
47129;SDS011;69689;48.122;11.542;2024-02-14T12:55:17;0.60;;;0.40;;
47129;SDS011;69689;48.122;11.542;2024-02-14T12:57:44;1.33;;;0.60;;
47129;SDS011;69689;48.122;11.542;2024-02-14T13:00:09;1.30;;;0.50;;
47129;SDS011;69689;48.122;11.542;2024-02-14T13:02:35;2.08;;;0.43;;
47129;SDS011;69689;48.122;11.542;2024-02-14T13:05:00;0.40;;;0.30;;
47129;SDS011;69689;48.122;11.542;2024-02-14T13:07:27;0.28;;;0.28;;
47129;SDS011;69689;48.122;11.542;2024-02-14T13:09:52;1.27;;;0.50;;
47129;SDS011;69689;48.122;11.542;2024-02-14T13:12:18;1.58;;;0.40;;
47129;SDS011;69689;48.122;11.542;2024-02-14T13:14:43;0.95;;;0.57;;
47129;SDS011;69689;48.122;11.542;2024-02-14T13:17:09;0.75;;;0.47;;
47129;SDS011;69689;48.122;11.542;2024-02-14T13:19:36;0.50;;;0.50;;
47129;SDS011;69689;48.122;11.542;2024-02-14T13:22:01;0.30;;;0.30;;
47129;SDS011;69689;48.122;11.542;2024-02-14T13:24:27;0.60;;;0.50;;
47129;SDS011;69689;48.122;11.542;2024-02-14T13:26:53;1.15;;;0.40;;
47129;SDS011;69689;48.122;11.542;2024-02-14T13:29:18;4.32;;;0.60;;
47129;SDS011;69689;48.122;11.542;2024-02-14T13:31:44;0.30;;;0.30;;
47129;SDS011;69689;48.122;11.542;2024-02-14T13:34:09;1.65;;;0.80;;
47129;SDS011;69689;48.122;11.542;2024-02-14T13:36:36;0.40;;;0.40;;
47129;SDS011;69689;48.122;11.542;2024-02-14T13:39:02;0.60;;;0.30;;
47129;SDS011;69689;48.122;11.542;2024-02-14T13:41:27;1.63;;;0.45;;
47129;SDS011;69689;48.122;11.542;2024-02-14T13:43:53;0.95;;;0.52;;
47129;SDS011;69689;48.122;11.542;2024-02-14T13:46:18;0.93;;;0.70;;
47129;SDS011;69689;48.122;11.542;2024-02-14T13:48:44;1.73;;;0.65;;
47129;SDS011;69689;48.122;11.542;2024-02-14T13:51:09;1.33;;;0.50;;
47129;SDS011;69689;48.122;11.542;2024-02-14T13:53:35;1.17;;;0.50;;
47129;SDS011;69689;48.122;11.542;2024-02-14T13:56:00;0.85;;;0.82;;
47129;SDS011;69689;48.122;11.542;2024-02-14T13:58:25;1.08;;;0.70;;
47129;SDS011;69689;48.122;11.542;2024-02-14T14:00:51;1.33;;;0.63;;
47129;SDS011;69689;48.122;11.542;2024-02-14T14:03:17;1.10;;;0.60;;
47129;SDS011;69689;48.122;11.542;2024-02-14T14:05:43;2.40;;;0.50;;
47129;SDS011;69689;48.122;11.542;2024-02-14T14:08:08;1.10;;;1.00;;
47129;SDS011;69689;48.122;11.542;2024-02-14T14:10:33;1.48;;;1.00;;
47129;SDS011;69689;48.122;11.542;2024-02-14T14:12:59;1.45;;;1.35;;
47129;SDS011;69689;48.122;11.542;2024-02-14T14:15:24;0.95;;;0.65;;
47129;SDS011;69689;48.122;11.542;2024-02-14T14:17:51;0.43;;;0.43;;
47129;SDS011;69689;48.122;11.542;2024-02-14T14:20:16;0.93;;;0.80;;
47129;SDS011;69689;48.122;11.542;2024-02-14T14:22:43;0.73;;;0.40;;
47129;SDS011;69689;48.122;11.542;2024-02-14T14:25:08;1.25;;;0.73;;
47129;SDS011;69689;48.122;11.542;2024-02-14T14:27:34;1.30;;;0.50;;
47129;SDS011;69689;48.122;11.542;2024-02-14T14:29:59;0.60;;;0.50;;
47129;SDS011;69689;48.122;11.542;2024-02-14T14:32:25;1.27;;;0.63;;
47129;SDS011;69689;48.122;11.542;2024-02-14T14:34:50;1.30;;;0.80;;
47129;SDS011;69689;48.122;11.542;2024-02-14T14:37:15;1.33;;;0.85;;
47129;SDS011;69689;48.122;11.542;2024-02-14T14:39:41;0.73;;;0.60;;
47129;SDS011;69689;48.122;11.542;2024-02-14T14:42:06;3.28;;;0.65;;
47129;SDS011;69689;48.122;11.542;2024-02-14T14:44:33;1.50;;;1.00;;
47129;SDS011;69689;48.122;11.542;2024-02-14T14:46:59;0.98;;;0.90;;
47129;SDS011;69689;48.122;11.542;2024-02-14T14:49:25;1.23;;;0.60;;
47129;SDS011;69689;48.122;11.542;2024-02-14T14:51:51;1.92;;;0.95;;
47129;SDS011;69689;48.122;11.542;2024-02-14T14:54:16;1.50;;;1.20;;
47129;SDS011;69689;48.122;11.542;2024-02-14T14:56:42;1.05;;;1.00;;
47129;SDS011;69689;48.122;11.542;2024-02-14T14:59:08;0.93;;;0.65;;
47129;SDS011;69689;48.122;11.542;2024-02-14T15:01:34;1.50;;;1.20;;
47129;SDS011;69689;48.122;11.542;2024-02-14T15:04:00;1.05;;;1.00;;
47129;SDS011;69689;48.122;11.542;2024-02-14T15:06:25;1.17;;;1.17;;
47129;SDS011;69689;48.122;11.542;2024-02-14T15:08:51;0.75;;;0.40;;
47129;SDS011;69689;48.122;11.542;2024-02-14T15:11:17;0.75;;;0.38;;
47129;SDS011;69689;48.122;11.542;2024-02-14T15:13:45;0.95;;;0.40;;
47129;SDS011;69689;48.122;11.542;2024-02-14T15:16:12;1.48;;;0.68;;
47129;SDS011;69689;48.122;11.542;2024-02-14T15:18:38;2.25;;;0.60;;
47129;SDS011;69689;48.122;11.542;2024-02-14T15:21:05;3.17;;;0.40;;
47129;SDS011;69689;48.122;11.542;2024-02-14T15:23:32;3.15;;;0.70;;
47129;SDS011;69689;48.122;11.542;2024-02-14T15:25:57;1.98;;;0.70;;
47129;SDS011;69689;48.122;11.542;2024-02-14T15:28:28;1.15;;;0.50;;
47129;SDS011;69689;48.122;11.542;2024-02-14T15:30:55;0.65;;;0.50;;
47129;SDS011;69689;48.122;11.542;2024-02-14T15:33:39;2.67;;;0.70;;
47129;SDS011;69689;48.122;11.542;2024-02-14T15:36:04;2.25;;;0.68;;
47129;SDS011;69689;48.122;11.542;2024-02-14T15:38:30;1.52;;;0.80;;
47129;SDS011;69689;48.122;11.542;2024-02-14T15:40:55;2.17;;;0.98;;
47129;SDS011;69689;48.122;11.542;2024-02-14T15:43:26;0.93;;;0.60;;
47129;SDS011;69689;48.122;11.542;2024-02-14T15:45:52;3.40;;;0.63;;
47129;SDS011;69689;48.122;11.542;2024-02-14T15:48:17;2.38;;;0.60;;
47129;SDS011;69689;48.122;11.542;2024-02-14T15:50:46;1.75;;;0.70;;
47129;SDS011;69689;48.122;11.542;2024-02-14T15:53:12;1.88;;;1.10;;
47129;SDS011;69689;48.122;11.542;2024-02-14T15:55:37;1.60;;;0.80;;
47129;SDS011;69689;48.122;11.542;2024-02-14T15:58:03;1.52;;;0.90;;
47129;SDS011;69689;48.122;11.542;2024-02-14T16:00:28;0.82;;;0.60;;
47129;SDS011;69689;48.122;11.542;2024-02-14T16:02:57;2.50;;;0.52;;
47129;SDS011;69689;48.122;11.542;2024-02-14T16:05:23;2.50;;;0.77;;
47129;SDS011;69689;48.122;11.542;2024-02-14T16:07:48;1.33;;;0.50;;
47129;SDS011;69689;48.122;11.542;2024-02-14T16:10:14;3.75;;;0.75;;
47129;SDS011;69689;48.122;11.542;2024-02-14T16:12:42;4.68;;;1.05;;
47129;SDS011;69689;48.122;11.542;2024-02-14T16:15:11;0.65;;;0.43;;
47129;SDS011;69689;48.122;11.542;2024-02-14T16:17:37;1.27;;;0.75;;
47129;SDS011;69689;48.122;11.542;2024-02-14T16:20:06;2.28;;;0.80;;
47129;SDS011;69689;48.122;11.542;2024-02-14T16:22:32;7.55;;;1.30;;
47129;SDS011;69689;48.122;11.542;2024-02-14T16:24:58;1.10;;;0.65;;
47129;SDS011;69689;48.122;11.542;2024-02-14T16:27:23;2.00;;;0.80;;
47129;SDS011;69689;48.122;11.542;2024-02-14T16:29:49;1.85;;;0.60;;
47129;SDS011;69689;48.122;11.542;2024-02-14T16:32:14;1.55;;;1.38;;
47129;SDS011;69689;48.122;11.542;2024-02-14T16:34:39;2.15;;;1.23;;
47129;SDS011;69689;48.122;11.542;2024-02-14T16:37:06;1.90;;;0.93;;
47129;SDS011;69689;48.122;11.542;2024-02-14T16:39:32;1.23;;;0.85;;
47129;SDS011;69689;48.122;11.542;2024-02-14T16:41:57;5.43;;;1.10;;
47129;SDS011;69689;48.122;11.542;2024-02-14T16:44:23;2.22;;;0.80;;
47129;SDS011;69689;48.122;11.542;2024-02-14T16:46:49;1.90;;;1.00;;
47129;SDS011;69689;48.122;11.542;2024-02-14T16:49:14;2.78;;;0.80;;
47129;SDS011;69689;48.122;11.542;2024-02-14T16:51:41;1.27;;;0.47;;
47129;SDS011;69689;48.122;11.542;2024-02-14T16:54:06;1.98;;;1.00;;
47129;SDS011;69689;48.122;11.542;2024-02-14T16:56:32;1.30;;;0.90;;
47129;SDS011;69689;48.122;11.542;2024-02-14T16:58:58;1.63;;;0.82;;
47129;SDS011;69689;48.122;11.542;2024-02-14T17:01:23;3.95;;;0.90;;
47129;SDS011;69689;48.122;11.542;2024-02-14T17:03:50;1.63;;;0.82;;
47129;SDS011;69689;48.122;11.542;2024-02-14T17:06:19;1.60;;;0.75;;
47129;SDS011;69689;48.122;11.542;2024-02-14T17:08:44;1.30;;;0.65;;
47129;SDS011;69689;48.122;11.542;2024-02-14T17:11:16;1.60;;;0.60;;
47129;SDS011;69689;48.122;11.542;2024-02-14T17:16:07;2.45;;;0.80;;
47129;SDS011;69689;48.122;11.542;2024-02-14T17:18:33;4.07;;;0.98;;
47129;SDS011;69689;48.122;11.542;2024-02-14T17:20:58;2.97;;;0.90;;
47129;SDS011;69689;48.122;11.542;2024-02-14T17:23:24;1.45;;;0.57;;
47129;SDS011;69689;48.122;11.542;2024-02-14T17:25:49;1.33;;;1.10;;
47129;SDS011;69689;48.122;11.542;2024-02-14T17:28:15;2.20;;;0.90;;
47129;SDS011;69689;48.122;11.542;2024-02-14T17:30:40;3.40;;;1.45;;
47129;SDS011;69689;48.122;11.542;2024-02-14T17:33:06;4.03;;;1.50;;
47129;SDS011;69689;48.122;11.542;2024-02-14T17:35:31;1.23;;;0.82;;
47129;SDS011;69689;48.122;11.542;2024-02-14T17:37:56;1.23;;;0.90;;
47129;SDS011;69689;48.122;11.542;2024-02-14T17:40:22;1.05;;;0.77;;
47129;SDS011;69689;48.122;11.542;2024-02-14T17:42:47;1.88;;;0.98;;
47129;SDS011;69689;48.122;11.542;2024-02-14T17:45:12;2.25;;;1.02;;
47129;SDS011;69689;48.122;11.542;2024-02-14T17:47:38;2.17;;;1.20;;
47129;SDS011;69689;48.122;11.542;2024-02-14T17:50:04;1.08;;;0.82;;
47129;SDS011;69689;48.122;11.542;2024-02-14T17:52:30;3.92;;;1.50;;
47129;SDS011;69689;48.122;11.542;2024-02-14T17:54:58;2.13;;;1.25;;
47129;SDS011;69689;48.122;11.542;2024-02-14T17:57:24;2.90;;;0.90;;
47129;SDS011;69689;48.122;11.542;2024-02-14T17:59:49;3.33;;;1.13;;
47129;SDS011;69689;48.122;11.542;2024-02-14T18:02:15;3.00;;;1.17;;
47129;SDS011;69689;48.122;11.542;2024-02-14T18:04:41;3.42;;;1.30;;
47129;SDS011;69689;48.122;11.542;2024-02-14T18:07:07;2.45;;;1.20;;
47129;SDS011;69689;48.122;11.542;2024-02-14T18:09:32;2.53;;;1.23;;
47129;SDS011;69689;48.122;11.542;2024-02-14T18:11:58;3.42;;;1.95;;
47129;SDS011;69689;48.122;11.542;2024-02-14T18:14:23;4.20;;;1.50;;
47129;SDS011;69689;48.122;11.542;2024-02-14T18:16:48;3.33;;;1.58;;
47129;SDS011;69689;48.122;11.542;2024-02-14T18:19:14;3.15;;;1.67;;
47129;SDS011;69689;48.122;11.542;2024-02-14T18:21:40;3.78;;;2.30;;
47129;SDS011;69689;48.122;11.542;2024-02-14T18:24:05;5.13;;;2.65;;
47129;SDS011;69689;48.122;11.542;2024-02-14T18:26:31;2.45;;;1.85;;
47129;SDS011;69689;48.122;11.542;2024-02-14T18:28:56;4.10;;;2.15;;
47129;SDS011;69689;48.122;11.542;2024-02-14T18:31:22;5.60;;;2.20;;
47129;SDS011;69689;48.122;11.542;2024-02-14T18:33:47;2.55;;;1.75;;
47129;SDS011;69689;48.122;11.542;2024-02-14T18:36:12;9.82;;;2.50;;
47129;SDS011;69689;48.122;11.542;2024-02-14T18:38:38;3.97;;;1.85;;
47129;SDS011;69689;48.122;11.542;2024-02-14T18:41:04;3.30;;;1.52;;
47129;SDS011;69689;48.122;11.542;2024-02-14T18:43:31;2.60;;;1.48;;
47129;SDS011;69689;48.122;11.542;2024-02-14T18:45:57;6.10;;;1.42;;
47129;SDS011;69689;48.122;11.542;2024-02-14T18:48:22;3.33;;;1.85;;
47129;SDS011;69689;48.122;11.542;2024-02-14T18:50:47;2.75;;;1.60;;
47129;SDS011;69689;48.122;11.542;2024-02-14T18:53:13;5.03;;;1.40;;
47129;SDS011;69689;48.122;11.542;2024-02-14T18:55:39;1.77;;;1.05;;
47129;SDS011;69689;48.122;11.542;2024-02-14T18:58:04;1.75;;;1.42;;
47129;SDS011;69689;48.122;11.542;2024-02-14T19:00:30;2.85;;;1.20;;
47129;SDS011;69689;48.122;11.542;2024-02-14T19:02:56;10.13;;;1.85;;
47129;SDS011;69689;48.122;11.542;2024-02-14T19:05:21;2.25;;;1.08;;
47129;SDS011;69689;48.122;11.542;2024-02-14T19:07:47;4.35;;;1.40;;
47129;SDS011;69689;48.122;11.542;2024-02-14T19:10:12;3.80;;;1.40;;
47129;SDS011;69689;48.122;11.542;2024-02-14T19:12:38;2.65;;;1.60;;
47129;SDS011;69689;48.122;11.542;2024-02-14T19:15:03;2.78;;;1.35;;
47129;SDS011;69689;48.122;11.542;2024-02-14T19:17:30;3.20;;;1.20;;
47129;SDS011;69689;48.122;11.542;2024-02-14T19:19:58;2.80;;;1.42;;
47129;SDS011;69689;48.122;11.542;2024-02-14T19:22:23;3.10;;;1.60;;
47129;SDS011;69689;48.122;11.542;2024-02-14T19:24:49;3.42;;;1.05;;
47129;SDS011;69689;48.122;11.542;2024-02-14T19:27:14;1.67;;;1.13;;
47129;SDS011;69689;48.122;11.542;2024-02-14T19:29:40;3.58;;;1.48;;
47129;SDS011;69689;48.122;11.542;2024-02-14T19:32:05;2.13;;;1.40;;
47129;SDS011;69689;48.122;11.542;2024-02-14T19:34:30;2.10;;;1.17;;
47129;SDS011;69689;48.122;11.542;2024-02-14T19:36:56;2.28;;;1.38;;
47129;SDS011;69689;48.122;11.542;2024-02-14T19:39:21;4.20;;;1.20;;
47129;SDS011;69689;48.122;11.542;2024-02-14T19:41:46;2.88;;;1.42;;
47129;SDS011;69689;48.122;11.542;2024-02-14T19:44:11;2.78;;;1.20;;
47129;SDS011;69689;48.122;11.542;2024-02-14T19:46:37;1.70;;;0.90;;
47129;SDS011;69689;48.122;11.542;2024-02-14T19:49:03;3.47;;;1.00;;
47129;SDS011;69689;48.122;11.542;2024-02-14T19:51:30;1.63;;;0.85;;
47129;SDS011;69689;48.122;11.542;2024-02-14T19:53:55;4.70;;;1.23;;
47129;SDS011;69689;48.122;11.542;2024-02-14T19:56:21;4.30;;;1.70;;
47129;SDS011;69689;48.122;11.542;2024-02-14T19:58:46;4.20;;;1.42;;
